バンクーバー の空港の天気 - METARとTAF

バンクーバー国際空港 ( CYVR / YVR ) - カナダ ブリティッシュコロンビア州バンクーバー
飛行場実況気象(Metar)
観測時間10/25 14:00 PDT (10/25 21:00 UTC)
風向・風速南西 2m/s
視程10km以上
天気現象
少しの雲 雲底高度 5490m
全天の4割程度の雲 雲底高度 5790m
全天の8割程度の雲 雲底高度 6400m
全天の8割程度の雲 雲底高度 7010m
気温6℃
湿度42%
気圧1036.2hPa
METARCYVR 252100Z 23004KT 210V020 20SM FEW180 SCT190 BKN210 BKN230 06/M06 A3060 RMK AC1AC3CC2CS1 SLP362
過去の天気等 Google飛行場航空写真 Wunderground天気予報

過去48時間のMETAR

飛行場予報(TAF)
発表時間: 10/25 13:40 PDT (10/25 20:40 UTC)
予報対象時間: 25日14時 PDT ~ 26日17時 PDT
風向・風速西 3m/s
視程10km以上
全天の8割程度の雲 雲底高度 4880m
25日21時 PDT から
風向・風速東 3m/s
視程10km以上
全天の4割程度の雲 雲底高度 460m
全天の8割程度の雲 雲底高度 2440m
26日1時 PDT から
風向・風速東 3m/s
視程10km以上
天気現象弱い雨
全天の4割程度の雲 雲底高度 370m
全天を覆う雲 雲底高度 910m
26日1時 PDT ~ 26日8時 PDT に一時的に
視程4830m
天気現象弱い雨雪 もや
全天の4割程度の雲 雲底高度 150m
全天を覆う雲 雲底高度 370m
26日1時 PDT から 確率 30% で
視程3220m
天気現象弱い凍雨 もや
全天の8割程度の雲 雲底高度 150m
26日8時 PDT から
風向・風速東 3m/s
視程10km以上
全天の8割程度の雲 雲底高度 910m
26日8時 PDT ~ 26日12時 PDT に一時的に
全天の8割程度の雲 雲底高度 610m
26日13時 PDT ~ 26日15時 PDT に徐々に
風向・風速南西 3m/s
TAF CYVR 252040Z 2521/2624 27006KT P6SM BKN160
FM260400 10006KT P6SM SCT015 BKN080
FM260800 09005KT P6SM -RA SCT012 OVC030
TEMPO 2608/2615 3SM -RASN BR SCT005 OVC012
PROB30 2608/2615 2SM -PL BR BKN005
FM261500 10006KT P6SM BKN030
TEMPO 2615/2619 BKN020
BECMG 2620/2622 22006KT RMK NXT FCST BY 260000Z